Overview Statistics Trail Chart Weather Telemetry Raw packets
 

This is the latest recevied weather packets stored in our database for station/object EA1JAV-10. If no packets are shown the sender has not sent any weather packets the latest 10 day(s).

<< 1 2 3 4 5 6 7 >>
Time Temp. Humidity Pressure Rain* Wind** Luminosity Snow
1788480414 23.89° C 38% 1006.9 hPa - - - -
1788478614 23.89° C 38% 1006.8 hPa - - - -
1788476813 24.44° C 37% 1006.7 hPa - - - -
1788475013 25° C 36% 1006.6 hPa - - - -
1788473213 25.56° C 36% 1006.8 hPa - - - -
1788471413 26.11° C 36% 1007 hPa - - - -
1788469613 26.11° C 36% 1007 hPa - - - -
1788467813 25.56° C 36% 1006.6 hPa - - - -
1788466013 26.11° C 36% 1006.3 hPa - - - -
1788464213 26.67° C 35% 1006 hPa - - - -
1788462413 27.78° C 35% 1005.8 hPa - - - -
1788460613 28.89° C 33% 1005.7 hPa - - - -
1788458812 29.44° C 31% 1005.6 hPa - - - -
1788457011 29.44° C 30% 1005.8 hPa - - - -
1788455211 30° C 29% 1005.9 hPa - - - -
1788453411 29.44° C 30% 1005.7 hPa - - - -
1788451611 30° C 29% 1005.9 hPa - - - -
1788449811 30° C 28% 1006.1 hPa - - - -
1788448011 28.89° C 29% 1006.3 hPa - - - -
1788446211 28.89° C 30% 1006.5 hPa - - - -
1788444411 28.33° C 32% 1006.7 hPa - - - -
1788442611 27.78° C 34% 1006.6 hPa - - - -
1788440811 27.22° C 36% 1006.6 hPa - - - -
1788439010 26.67° C 37% 1006.8 hPa - - - -
1788437210 25.56° C 43% 1007.1 hPa - - - -

* Rain since midnight (hover to see other rain measurements)
** Current wind speed in m/s (hover to see current wind gust speed)